createdAt,value
2017-12-01T00:08:09.955Z,7.60
2017-12-01T00:10:39.772Z,9.25
2017-12-01T00:13:12.848Z,9.88
2017-12-01T00:15:48.869Z,11.20
2017-12-01T00:18:23.807Z,9.43
2017-12-01T00:20:59.158Z,9.95
2017-12-01T00:23:28.158Z,10.65
2017-12-01T00:25:58.067Z,9.52
2017-12-01T00:28:27.090Z,8.75
2017-12-01T00:31:02.026Z,7.30
2017-12-01T00:33:30.820Z,6.22
2017-12-01T00:35:59.712Z,6.45
2017-12-01T00:38:28.522Z,5.28
2017-12-01T00:41:03.665Z,5.60
2017-12-01T00:43:32.466Z,5.82
2017-12-01T00:46:03.110Z,5.65
2017-12-01T00:48:36.015Z,9.80
2017-12-01T01:00:24.019Z,17.30
2017-12-01T01:02:59.262Z,12.85
2017-12-01T01:05:30.024Z,13.25
2017-12-01T01:07:59.133Z,12.70
2017-12-01T01:10:57.783Z,11.93
2017-12-01T01:13:27.155Z,12.75
2017-12-01T01:15:59.752Z,14.20
2017-12-01T01:18:29.538Z,12.88
2017-12-01T01:20:59.342Z,12.70
2017-12-01T01:23:30.616Z,13.35
2017-12-01T01:26:30.549Z,11.40
2017-12-01T01:29:08.451Z,6.43
2017-12-01T01:31:39.389Z,6.50
2017-12-01T01:34:16.029Z,5.97
2017-12-01T01:36:50.124Z,6.32
2017-12-01T01:39:22.940Z,5.10
2017-12-01T02:27:31.014Z,10.10
2017-12-01T02:30:00.573Z,10.35
2017-12-01T02:32:30.385Z,7.97
2017-12-01T02:35:02.573Z,6.12
2017-12-01T02:37:54.360Z,5.07
2017-12-01T02:40:23.249Z,4.85
2017-12-01T02:42:55.837Z,4.90
2017-12-01T02:45:27.044Z,4.50
2017-12-01T02:48:02.462Z,4.65
2017-12-01T02:50:33.145Z,4.82
2017-12-01T02:53:08.815Z,4.90
2017-12-01T02:55:50.898Z,5.05
2017-12-01T02:58:20.629Z,5.20
2017-12-01T03:01:00.856Z,5.65
2017-12-01T03:03:35.486Z,5.30
2017-12-01T03:06:04.190Z,7.25
2017-12-01T03:08:33.609Z,7.00
2017-12-01T03:11:04.039Z,6.50
2017-12-01T03:13:33.008Z,6.65
2017-12-01T03:16:02.873Z,7.15
2017-12-01T03:18:31.574Z,6.25
2017-12-01T03:21:00.722Z,7.25
2017-12-01T03:23:29.893Z,7.32
2017-12-01T03:25:58.589Z,7.25
2017-12-01T03:28:28.415Z,8.30
2017-12-01T03:30:57.493Z,8.05
2017-12-01T03:33:26.947Z,8.50
2017-12-01T03:35:56.929Z,8.70
2017-12-01T03:38:25.931Z,9.40
2017-12-01T03:40:55.873Z,10.10
2017-12-01T03:43:24.784Z,10.45
2017-12-01T03:46:00.725Z,12.27
2017-12-01T03:48:29.474Z,11.15
2017-12-01T03:51:01.437Z,11.55
2017-12-01T03:53:31.123Z,10.32
2017-12-01T03:56:00.579Z,8.20
2017-12-01T03:58:35.479Z,7.30
2017-12-01T04:01:05.126Z,7.72
2017-12-01T04:03:35.448Z,7.85
2017-12-01T04:06:11.000Z,8.10
2017-12-01T04:08:41.708Z,9.15
2017-12-01T04:11:16.514Z,9.02
2017-12-01T04:13:45.996Z,10.27
2017-12-01T04:16:14.675Z,8.90
2017-12-01T04:18:43.368Z,8.95
2017-12-01T04:21:12.060Z,10.02
2017-12-01T04:23:41.506Z,8.40
2017-12-01T04:26:10.206Z,10.10
2017-12-01T04:28:38.890Z,10.35
2017-12-01T04:31:13.700Z,11.57
2017-12-01T04:33:42.393Z,10.55
2017-12-01T04:36:18.285Z,10.70
2017-12-01T04:38:47.035Z,11.00
2017-12-01T04:41:16.439Z,11.43
2017-12-01T04:43:45.142Z,12.77
2017-12-01T04:46:13.815Z,10.77
2017-12-01T04:48:42.500Z,9.35
2017-12-01T04:51:11.190Z,9.40
2017-12-01T04:53:46.747Z,9.10
2017-12-01T04:56:15.481Z,9.45
2017-12-01T04:58:44.916Z,8.98
2017-12-01T05:01:13.660Z,11.12
2017-12-01T05:03:43.148Z,11.75
2017-12-01T05:06:18.089Z,13.38
2017-12-01T05:08:47.619Z,14.07
2017-12-01T05:11:18.196Z,13.93
2017-12-01T05:13:53.764Z,13.30
2017-12-01T05:16:23.454Z,14.60
2017-12-01T05:18:58.413Z,14.48
2017-12-01T05:21:27.259Z,14.00
2017-12-01T05:23:55.981Z,14.23
2017-12-01T05:26:24.659Z,13.25
2017-12-01T05:28:53.348Z,14.20
2017-12-01T05:31:22.026Z,14.48
2017-12-01T05:33:50.723Z,14.25
2017-12-01T05:36:25.671Z,13.95
2017-12-01T05:38:55.126Z,15.07
2017-12-01T05:41:23.808Z,17.30
2017-12-01T05:43:53.436Z,16.35
2017-12-01T05:46:22.123Z,16.15
2017-12-01T05:48:50.827Z,15.43
2017-12-01T05:51:25.751Z,15.20
2017-12-01T05:54:00.564Z,15.82
2017-12-01T05:56:41.148Z,15.27
2017-12-01T05:59:09.835Z,14.82
2017-12-01T06:01:38.577Z,15.73
2017-12-01T06:04:07.297Z,13.90
2017-12-01T06:06:36.002Z,15.43
2017-12-01T06:09:11.112Z,16.62
2017-12-01T06:11:48.126Z,14.50
2017-12-01T06:14:17.701Z,14.75
2017-12-01T06:16:46.456Z,15.18
2017-12-01T06:19:21.324Z,14.65
2017-12-01T06:21:50.045Z,15.70
2017-12-01T06:24:18.850Z,14.05
2017-12-01T06:26:53.896Z,13.50
2017-12-01T06:29:23.627Z,17.52
2017-12-01T06:31:53.663Z,14.85
2017-12-01T06:34:23.540Z,14.73
2017-12-01T06:36:58.831Z,15.45
2017-12-01T06:39:29.003Z,16.17
2017-12-01T06:42:04.140Z,16.20
2017-12-01T06:44:39.113Z,17.70
2017-12-01T06:47:08.710Z,15.57
2017-12-01T06:49:37.749Z,15.45
2017-12-01T06:52:06.548Z,13.68
2017-12-01T06:54:47.780Z,13.50
2017-12-01T06:57:16.612Z,14.20
2017-12-01T06:59:45.319Z,13.82
2017-12-01T07:02:20.879Z,14.18
2017-12-01T07:04:52.103Z,16.62
2017-12-01T07:07:20.885Z,16.15
2017-12-01T07:09:51.438Z,16.87
2017-12-01T07:12:20.120Z,16.52
2017-12-01T07:14:55.036Z,16.12
2017-12-01T07:17:23.706Z,14.25
2017-12-01T07:19:52.379Z,13.02
2017-12-01T07:22:21.058Z,13.20
2017-12-01T07:24:49.738Z,15.00
2017-12-01T07:27:24.648Z,15.25
2017-12-01T07:29:53.323Z,17.60
2017-12-01T07:32:23.622Z,14.70
2017-12-01T07:34:59.487Z,16.17
2017-12-01T07:37:35.024Z,15.07
2017-12-01T07:40:04.550Z,16.75
2017-12-01T07:42:33.256Z,23.20
2017-12-01T07:45:11.607Z,17.73
2017-12-01T07:47:40.305Z,19.95
2017-12-01T07:50:08.987Z,18.60
2017-12-01T07:52:37.670Z,17.92
2017-12-01T07:55:07.230Z,16.25
2017-12-01T07:57:41.986Z,15.60
2017-12-01T08:00:12.664Z,15.20
2017-12-01T08:02:41.351Z,17.60
2017-12-01T08:05:16.118Z,17.30
2017-12-01T08:07:51.024Z,17.08
2017-12-01T08:10:19.719Z,18.98
2017-12-01T08:12:48.403Z,18.27
2017-12-01T08:15:17.771Z,18.60
2017-12-01T08:17:52.668Z,19.08
2017-12-01T08:20:21.342Z,18.90
2017-12-01T08:22:52.920Z,21.62
2017-12-01T08:25:38.954Z,22.75
2017-12-01T08:28:07.779Z,19.67
2017-12-01T08:30:42.521Z,20.27
2017-12-01T08:33:11.223Z,19.15
2017-12-01T08:35:43.092Z,17.95
2017-12-01T08:38:11.780Z,20.08
2017-12-01T08:40:47.311Z,20.30
2017-12-01T08:43:15.994Z,20.52
2017-12-01T08:45:44.678Z,19.75
2017-12-01T08:48:13.363Z,17.92
2017-12-01T08:50:42.118Z,18.45
2017-12-01T08:53:17.594Z,18.90
2017-12-01T08:55:46.282Z,19.55
2017-12-01T08:58:20.987Z,20.08
2017-12-01T09:00:49.699Z,20.50
2017-12-01T09:03:19.398Z,20.20
2017-12-01T09:05:48.084Z,19.95
2017-12-01T09:08:16.775Z,21.10
2017-12-01T09:10:45.449Z,19.33
2017-12-01T09:13:15.123Z,21.58
2017-12-01T09:15:44.588Z,21.17
2017-12-01T09:18:19.527Z,20.05
2017-12-01T09:20:48.205Z,21.15
2017-12-01T09:23:22.626Z,22.02
2017-12-01T09:25:51.308Z,22.27
2017-12-01T09:28:20.003Z,21.65
2017-12-01T09:30:54.939Z,20.30
2017-12-01T09:33:23.587Z,22.20
2017-12-01T09:35:53.135Z,21.17
2017-12-01T09:38:21.814Z,20.73
2017-12-01T09:40:50.507Z,19.85
2017-12-01T09:43:19.244Z,20.48
2017-12-01T09:45:54.032Z,20.25
2017-12-01T09:48:22.709Z,20.62
2017-12-01T09:50:57.496Z,21.80
2017-12-01T09:53:26.171Z,19.75
2017-12-01T09:55:54.852Z,22.20
2017-12-01T09:58:23.537Z,21.42
2017-12-01T10:00:52.211Z,19.92
2017-12-01T10:03:21.767Z,20.30
2017-12-01T10:05:57.296Z,20.88
2017-12-01T10:08:51.707Z,19.55
2017-12-01T10:11:20.387Z,21.08
2017-12-01T10:13:55.190Z,19.45
2017-12-01T10:16:23.862Z,20.77
2017-12-01T10:18:52.548Z,19.35
2017-12-01T10:21:21.222Z,20.48
2017-12-01T10:23:56.163Z,20.58
2017-12-01T10:26:24.852Z,19.20
2017-12-01T10:29:00.551Z,18.65
2017-12-01T10:31:29.231Z,18.70
2017-12-01T10:33:57.907Z,17.45
2017-12-01T10:36:26.590Z,16.77
2017-12-01T10:38:55.272Z,19.00
2017-12-01T10:41:30.927Z,19.65
2017-12-01T10:44:07.394Z,19.30
2017-12-01T10:46:42.375Z,19.52
2017-12-01T10:49:11.894Z,19.92
2017-12-01T10:51:40.601Z,18.48
2017-12-01T10:54:10.124Z,21.48
2017-12-01T10:56:38.810Z,21.48
2017-12-01T10:59:07.492Z,21.25
2017-12-01T11:01:43.044Z,22.45
2017-12-01T11:04:17.955Z,19.35
2017-12-01T11:06:54.435Z,12.90
2017-12-01T11:09:23.137Z,12.80
2017-12-01T11:11:51.809Z,12.25
2017-12-01T11:14:20.499Z,12.77
2017-12-01T11:16:55.434Z,12.35
2017-12-01T11:19:30.316Z,13.60
2017-12-01T11:22:05.095Z,15.20
2017-12-01T11:24:33.775Z,16.40
2017-12-01T11:27:09.321Z,14.07
2017-12-01T11:29:39.634Z,15.18
2017-12-01T11:32:08.330Z,13.60
2017-12-01T11:34:37.002Z,13.90
2017-12-01T11:37:05.701Z,23.00
2017-12-01T11:39:41.227Z,19.37
2017-12-01T11:42:14.951Z,17.55
2017-12-01T11:44:43.631Z,17.45
2017-12-01T11:47:12.315Z,23.02
2017-12-01T11:49:41.839Z,26.85
2017-12-01T11:52:16.615Z,13.70
2017-12-01T11:54:45.310Z,10.23
2017-12-01T11:57:20.263Z,10.65
2017-12-01T11:59:55.820Z,10.00
2017-12-01T12:02:24.503Z,9.52
2017-12-01T12:04:59.413Z,8.80
2017-12-01T12:07:28.115Z,10.40
2017-12-01T12:10:03.039Z,10.43
2017-12-01T12:12:37.814Z,11.40
2017-12-01T12:15:12.634Z,11.70
2017-12-01T12:17:41.338Z,10.40
2017-12-01T12:20:10.206Z,12.00
2017-12-01T12:22:39.038Z,11.60
2017-12-01T12:25:13.948Z,12.88
2017-12-01T12:27:44.475Z,12.30
2017-12-01T12:30:13.931Z,11.98
2017-12-01T12:32:42.622Z,11.12
2017-12-01T12:35:11.303Z,15.77
2017-12-01T12:37:46.219Z,17.05
2017-12-01T12:40:14.899Z,12.65
2017-12-01T12:42:43.801Z,11.65
2017-12-01T12:45:12.487Z,12.07
2017-12-01T12:47:42.110Z,10.55
2017-12-01T12:50:17.032Z,9.98
2017-12-01T12:52:51.796Z,9.95
2017-12-01T12:55:20.495Z,12.23
2017-12-01T12:57:49.211Z,10.23
2017-12-01T13:00:17.922Z,12.80
2017-12-01T13:02:47.304Z,13.07
2017-12-01T13:05:16.176Z,12.80
2017-12-01T13:07:45.621Z,21.65
2017-12-01T13:10:14.282Z,12.80
2017-12-01T13:12:42.975Z,16.35
2017-12-01T13:15:11.670Z,11.25
2017-12-01T13:17:40.352Z,16.73
2017-12-01T13:20:15.111Z,11.20
2017-12-01T13:22:50.029Z,9.55
2017-12-01T13:25:18.822Z,8.77
2017-12-01T13:27:47.488Z,9.32
2017-12-01T13:30:16.170Z,14.43
2017-12-01T13:32:51.104Z,20.65
2017-12-01T13:35:19.792Z,21.80
2017-12-01T13:37:55.332Z,14.00
2017-12-01T13:40:24.014Z,19.05
2017-12-01T13:42:52.687Z,30.95
2017-12-01T13:45:28.271Z,24.20
2017-12-01T13:47:57.035Z,15.80
2017-12-01T13:50:31.811Z,16.33
2017-12-01T13:53:06.572Z,14.70
2017-12-01T13:55:41.495Z,15.48
2017-12-01T13:58:16.396Z,13.30
2017-12-01T14:00:45.095Z,12.23
2017-12-01T14:03:13.788Z,18.05
2017-12-01T14:05:42.496Z,31.80
2017-12-01T14:08:11.943Z,14.68
2017-12-01T14:10:40.640Z,16.62
2017-12-01T14:13:16.424Z,17.67
2017-12-01T14:15:45.873Z,22.00
2017-12-01T14:18:14.730Z,19.05
2017-12-01T14:20:44.151Z,17.83
2017-12-01T14:23:12.849Z,11.52
2017-12-01T14:25:41.611Z,17.15
2017-12-01T14:28:17.305Z,11.60
2017-12-01T14:30:52.239Z,13.68
2017-12-01T14:33:20.935Z,12.35
2017-12-01T14:35:55.832Z,12.65
2017-12-01T14:38:24.542Z,12.50
2017-12-01T14:40:53.265Z,9.50
2017-12-01T14:43:29.018Z,10.00
2017-12-01T14:45:58.112Z,10.93
2017-12-01T14:48:27.085Z,13.82
2017-12-01T14:50:55.869Z,14.43
2017-12-01T14:53:24.839Z,12.90
2017-12-01T14:55:57.556Z,9.60
2017-12-01T14:58:26.240Z,15.25
2017-12-01T15:01:01.139Z,11.63
2017-12-01T15:03:32.054Z,9.00
2017-12-01T15:06:08.015Z,9.95
2017-12-01T15:08:37.861Z,8.88
2017-12-01T15:11:13.580Z,8.00
2017-12-01T15:13:42.228Z,9.07
2017-12-01T15:16:18.973Z,9.20
2017-12-01T15:18:53.883Z,9.18
2017-12-01T15:21:23.537Z,9.75
2017-12-01T15:23:59.171Z,9.60
2017-12-01T15:26:28.756Z,8.95
2017-12-01T15:28:57.432Z,10.00
2017-12-01T15:31:34.058Z,10.43
2017-12-01T15:34:08.883Z,10.32
2017-12-01T15:36:37.562Z,10.40
2017-12-01T15:39:06.235Z,9.38
2017-12-01T15:41:35.670Z,8.45
2017-12-01T15:44:05.212Z,9.45
2017-12-01T15:46:34.806Z,10.38
2017-12-01T15:49:10.334Z,9.88
2017-12-01T15:51:39.002Z,9.23
2017-12-01T15:54:08.646Z,9.05
2017-12-01T15:56:47.564Z,9.23
2017-12-01T15:59:23.013Z,8.88
2017-12-01T16:01:52.622Z,9.50
2017-12-01T16:04:22.143Z,9.65
2017-12-01T16:06:50.832Z,9.63
2017-12-01T16:09:25.719Z,9.30
2017-12-01T16:11:54.418Z,10.38
2017-12-01T16:14:24.090Z,10.55
2017-12-01T16:16:58.987Z,9.15
2017-12-01T16:19:33.486Z,9.63
2017-12-01T16:22:02.189Z,8.70
2017-12-01T16:24:30.867Z,10.90
2017-12-01T16:26:59.595Z,8.82
2017-12-01T16:29:30.424Z,8.93
2017-12-01T16:32:02.183Z,9.55
2017-12-01T16:34:32.176Z,9.05
2017-12-01T16:37:01.765Z,10.23
2017-12-01T16:39:40.314Z,11.35
2017-12-01T16:42:15.186Z,9.27
2017-12-01T16:44:43.904Z,9.43
2017-12-01T16:47:35.102Z,13.40
2017-12-01T16:50:03.808Z,17.58
2017-12-01T16:52:32.526Z,16.02
2017-12-01T16:55:08.234Z,15.85
2017-12-01T16:57:43.122Z,12.80
2017-12-01T17:00:12.815Z,13.75
2017-12-01T17:02:42.263Z,14.18
2017-12-01T17:05:17.943Z,14.30
2017-12-01T17:07:53.777Z,11.75
2017-12-01T17:10:29.320Z,12.80
2017-12-01T17:12:58.006Z,10.95
2017-12-01T17:15:26.725Z,10.07
2017-12-01T17:17:55.440Z,9.85
2017-12-01T17:20:24.984Z,9.70
2017-12-01T17:23:01.480Z,10.95
2017-12-01T17:25:30.199Z,11.82
2017-12-01T17:27:58.902Z,10.50
2017-12-01T17:30:34.567Z,11.95
2017-12-01T17:33:07.875Z,12.35
2017-12-01T17:35:36.558Z,12.50
2017-12-01T17:38:12.215Z,10.80
2017-12-01T17:40:47.100Z,8.48
2017-12-01T17:43:17.643Z,9.10
2017-12-01T17:45:46.539Z,9.20
2017-12-01T17:48:16.520Z,9.20
2017-12-01T17:50:52.277Z,8.40
2017-12-01T17:53:20.974Z,8.90
2017-12-01T18:00:33.602Z,9.80
2017-12-01T18:03:40.873Z,9.20
2017-12-01T18:06:18.706Z,9.50
2017-12-01T18:08:47.384Z,9.80
2017-12-01T18:11:19.935Z,9.98
2017-12-01T18:13:48.603Z,9.40
2017-12-01T18:16:23.539Z,14.23
2017-12-01T18:18:58.467Z,14.05
2017-12-01T18:21:27.171Z,15.32
2017-12-01T18:23:56.845Z,14.75
2017-12-01T18:26:25.515Z,12.75
2017-12-01T18:28:54.202Z,11.98
2017-12-01T18:31:22.888Z,11.55
2017-12-01T18:34:13.427Z,11.05
2017-12-01T18:36:54.239Z,11.20
2017-12-01T18:42:36.040Z,10.07
2017-12-01T18:45:04.787Z,10.65
2017-12-01T18:54:00.393Z,12.80
2017-12-01T18:56:31.664Z,12.65
2017-12-01T18:59:07.905Z,13.40
2017-12-01T19:01:45.454Z,12.05
2017-12-01T19:04:14.482Z,12.37
2017-12-01T19:06:52.544Z,13.15
2017-12-01T19:09:22.639Z,11.60
2017-12-01T19:11:52.359Z,10.82
2017-12-01T19:14:21.858Z,12.37
2017-12-01T19:16:50.778Z,14.75
2017-12-01T19:19:20.596Z,13.50
2017-12-01T19:21:55.644Z,12.20
2017-12-01T19:24:30.557Z,12.30
2017-12-01T19:26:59.255Z,14.93
2017-12-01T19:29:29.672Z,13.65
2017-12-01T19:31:58.375Z,13.30
2017-12-01T19:34:33.205Z,14.43
2017-12-01T19:37:07.995Z,32.28
2017-12-01T19:39:42.919Z,18.25
2017-12-01T19:42:12.484Z,16.02
2017-12-01T19:44:42.132Z,14.60
2017-12-01T19:47:10.831Z,23.42
2017-12-01T19:49:41.141Z,48.80
2017-12-01T19:52:10.719Z,33.63
2017-12-01T19:54:39.403Z,24.25
2017-12-01T19:57:14.594Z,18.65
2017-12-01T19:59:46.166Z,14.77
2017-12-01T20:02:20.964Z,14.07
2017-12-01T20:04:55.883Z,13.93
2017-12-01T20:07:24.580Z,15.95
2017-12-01T20:09:53.272Z,14.87
2017-12-01T20:12:21.943Z,14.25
2017-12-01T20:14:56.947Z,24.80
2017-12-01T20:17:25.659Z,24.50
2017-12-01T20:19:54.384Z,21.35
2017-12-01T20:22:23.937Z,21.20
2017-12-01T20:24:52.621Z,20.67
2017-12-01T20:27:24.602Z,20.70
2017-12-01T20:29:53.312Z,20.25
2017-12-01T20:32:28.926Z,21.62
2017-12-01T20:34:57.620Z,22.80
2017-12-01T20:37:32.374Z,22.10
2017-12-01T20:40:03.726Z,23.75
2017-12-01T20:42:33.183Z,24.83
2017-12-01T20:45:08.748Z,23.33
2017-12-01T20:47:37.428Z,23.40
2017-12-01T20:50:06.105Z,23.40
2017-12-01T20:52:41.721Z,22.08
2017-12-01T20:55:10.355Z,22.75
2017-12-01T20:57:40.675Z,23.12
2017-12-01T21:00:16.217Z,22.52
2017-12-01T21:02:51.123Z,21.83
2017-12-01T21:05:19.794Z,22.52
2017-12-01T21:07:48.491Z,20.60
2017-12-01T21:10:18.121Z,20.67
2017-12-01T21:12:46.804Z,21.98
2017-12-01T21:15:15.509Z,21.10
2017-12-01T21:17:44.181Z,21.67
2017-12-01T21:20:12.866Z,22.17
2017-12-01T21:22:52.936Z,22.80
2017-12-01T21:25:22.819Z,22.40
2017-12-01T21:27:57.835Z,20.45
2017-12-01T21:30:26.902Z,20.27
2017-12-01T21:33:01.817Z,20.23
2017-12-01T21:35:30.575Z,20.08
2017-12-01T21:38:03.360Z,19.87
2017-12-01T21:40:38.283Z,19.40
2017-12-01T21:43:06.991Z,19.17
2017-12-01T21:45:35.882Z,21.45
2017-12-01T21:48:04.689Z,20.48
2017-12-01T21:50:39.465Z,21.92
2017-12-01T21:53:14.378Z,20.65
2017-12-01T21:55:43.046Z,20.15
2017-12-01T21:58:12.503Z,18.92
2017-12-01T22:00:41.183Z,19.70
2017-12-01T22:03:09.893Z,20.05
2017-12-01T22:05:38.647Z,22.42
2017-12-01T22:08:14.203Z,22.30
2017-12-01T22:10:48.990Z,19.95
2017-12-01T22:13:18.510Z,20.05
2017-12-01T22:15:47.565Z,19.00
2017-12-01T22:18:16.256Z,18.75
2017-12-01T22:20:44.978Z,17.35
2017-12-01T22:43:26.122Z,16.10
2017-12-01T22:46:09.871Z,16.70
2017-12-01T22:48:45.196Z,15.90
2017-12-01T22:51:14.983Z,14.40
2017-12-01T22:53:47.098Z,14.95
2017-12-01T22:56:17.451Z,13.77
2017-12-01T22:58:52.693Z,13.80
2017-12-01T23:01:28.105Z,14.85
2017-12-01T23:04:04.036Z,14.15
2017-12-01T23:06:40.521Z,13.88
2017-12-01T23:09:13.435Z,13.23
2017-12-01T23:11:52.277Z,16.35
2017-12-01T23:14:29.801Z,16.10
2017-12-01T23:17:01.862Z,16.90
2017-12-01T23:19:36.911Z,16.52
2017-12-01T23:22:12.102Z,15.57
2017-12-01T23:24:41.793Z,16.80
2017-12-01T23:27:11.193Z,16.25
2017-12-01T23:29:40.678Z,15.77
2017-12-01T23:32:12.844Z,15.50
2017-12-01T23:34:42.023Z,16.77
2017-12-01T23:37:17.792Z,17.50
2017-12-01T23:39:46.912Z,19.45
2017-12-01T23:42:22.353Z,19.23
2017-12-01T23:44:51.318Z,23.48
2017-12-01T23:47:20.471Z,19.40
2017-12-01T23:49:50.671Z,23.83
2017-12-01T23:52:23.258Z,31.83
2017-12-01T23:54:52.778Z,24.02
2017-12-01T23:57:22.044Z,17.80
2017-12-01T23:59:57.444Z,25.33
